createdAt,value
2018-08-20T00:00:12.603Z,0
2018-08-20T00:00:53.184Z,0
2018-08-20T00:01:33.752Z,0
2018-08-20T00:02:14.313Z,0
2018-08-20T00:02:54.878Z,0
2018-08-20T00:03:35.441Z,0
2018-08-20T00:04:15.996Z,0
2018-08-20T00:04:56.576Z,0
2018-08-20T00:05:37.127Z,0
2018-08-20T00:06:17.714Z,0
2018-08-20T00:06:58.291Z,0
2018-08-20T00:07:38.861Z,0
2018-08-20T00:08:19.430Z,0
2018-08-20T00:09:00.060Z,0
2018-08-20T00:09:40.628Z,0
2018-08-20T00:10:21.255Z,0
2018-08-20T00:11:01.812Z,0
2018-08-20T00:11:42.377Z,0
2018-08-20T00:12:22.940Z,0
2018-08-20T00:13:03.508Z,0
2018-08-20T00:13:44.090Z,0
2018-08-20T00:14:24.648Z,0
2018-08-20T00:15:05.216Z,0
2018-08-20T00:15:45.769Z,0
2018-08-20T00:16:26.338Z,0
2018-08-20T00:17:06.940Z,0
2018-08-20T00:17:47.574Z,0
2018-08-20T00:18:28.133Z,0
2018-08-20T00:19:08.696Z,0
2018-08-20T00:19:49.267Z,0
2018-08-20T00:20:29.832Z,0
2018-08-20T00:21:10.586Z,0
2018-08-20T00:21:51.161Z,0
2018-08-20T00:22:31.754Z,0
2018-08-20T00:23:12.398Z,0
2018-08-20T00:23:52.964Z,0
2018-08-20T00:24:33.557Z,0
2018-08-20T00:25:14.120Z,0
2018-08-20T00:25:54.684Z,0
2018-08-20T00:26:35.261Z,0
2018-08-20T00:27:15.840Z,0
2018-08-20T00:27:56.397Z,0
2018-08-20T00:28:36.956Z,0
2018-08-20T00:29:17.516Z,0
2018-08-20T00:29:58.085Z,0
2018-08-20T00:30:38.661Z,0
2018-08-20T00:31:19.247Z,0
2018-08-20T00:31:59.863Z,0
2018-08-20T00:32:40.424Z,0
2018-08-20T00:33:20.987Z,0
2018-08-20T00:34:01.552Z,0
2018-08-20T00:34:42.111Z,0
2018-08-20T00:35:22.704Z,0
2018-08-20T00:36:03.274Z,0
2018-08-20T00:36:43.838Z,0
2018-08-20T00:37:24.406Z,0
2018-08-20T00:38:04.966Z,0
2018-08-20T00:38:45.526Z,0
2018-08-20T00:39:26.077Z,0
2018-08-20T00:40:06.700Z,0
2018-08-20T00:40:47.256Z,0
2018-08-20T00:41:27.814Z,0
2018-08-20T00:42:08.381Z,0
2018-08-20T00:42:48.949Z,0
2018-08-20T00:43:29.522Z,0
2018-08-20T00:44:10.087Z,0
2018-08-20T00:44:50.666Z,0
2018-08-20T00:45:31.239Z,0
2018-08-20T00:46:11.826Z,0
2018-08-20T00:46:52.391Z,0
2018-08-20T00:47:32.977Z,0
2018-08-20T00:48:13.540Z,0
2018-08-20T00:48:54.107Z,0
2018-08-20T00:49:34.668Z,0
2018-08-20T00:50:15.234Z,0
2018-08-20T00:50:55.800Z,0
2018-08-20T00:51:36.372Z,0
2018-08-20T00:52:16.948Z,0
2018-08-20T00:52:57.510Z,0
2018-08-20T00:53:38.079Z,0
2018-08-20T00:54:18.650Z,0
2018-08-20T00:54:59.210Z,0
2018-08-20T00:55:39.792Z,0
2018-08-20T00:56:20.359Z,0
2018-08-20T00:57:00.936Z,0
2018-08-20T00:57:41.502Z,0
2018-08-20T00:58:22.070Z,0
2018-08-20T00:59:02.631Z,0
2018-08-20T00:59:43.210Z,0
2018-08-20T01:00:23.862Z,0
2018-08-20T01:01:04.415Z,0
2018-08-20T01:01:44.971Z,0
2018-08-20T01:02:25.578Z,0
2018-08-20T01:03:06.156Z,0
2018-08-20T01:03:46.732Z,0
2018-08-20T01:04:27.294Z,0
2018-08-20T01:05:07.851Z,0
2018-08-20T01:05:48.421Z,0
2018-08-20T01:06:28.996Z,0
2018-08-20T01:07:09.575Z,0
2018-08-20T01:07:50.140Z,0
2018-08-20T01:08:30.704Z,0
2018-08-20T01:09:11.287Z,0
2018-08-20T01:09:51.860Z,0
2018-08-20T01:10:32.425Z,0
2018-08-20T01:11:12.977Z,0
2018-08-20T01:11:53.568Z,0
2018-08-20T01:12:34.131Z,0
2018-08-20T01:13:14.688Z,0
2018-08-20T01:13:55.256Z,0
2018-08-20T01:14:35.820Z,0
2018-08-20T01:15:16.404Z,0
2018-08-20T01:15:56.948Z,0
2018-08-20T01:16:37.507Z,0
2018-08-20T01:17:18.085Z,0
2018-08-20T01:17:58.708Z,0
2018-08-20T01:18:39.282Z,0
2018-08-20T01:19:19.832Z,0
2018-08-20T01:20:00.401Z,0
2018-08-20T01:20:40.978Z,0
2018-08-20T01:21:21.581Z,0
2018-08-20T01:22:02.132Z,0
2018-08-20T01:22:42.711Z,0
2018-08-20T01:23:23.278Z,0
2018-08-20T01:24:03.868Z,0
2018-08-20T01:24:44.459Z,0
2018-08-20T01:25:25.030Z,0
2018-08-20T01:26:05.596Z,0
2018-08-20T01:26:46.156Z,0
2018-08-20T01:27:26.719Z,0
2018-08-20T01:28:07.306Z,0
2018-08-20T01:28:47.902Z,0
2018-08-20T01:29:28.539Z,0
2018-08-20T01:30:09.106Z,0
2018-08-20T01:30:49.676Z,0
2018-08-20T01:31:30.257Z,0
2018-08-20T01:32:10.819Z,0
2018-08-20T01:32:51.414Z,0
2018-08-20T01:33:31.992Z,0
2018-08-20T01:34:12.554Z,0
2018-08-20T01:34:53.140Z,0
2018-08-20T01:35:33.710Z,0
2018-08-20T01:36:14.272Z,0
2018-08-20T01:36:54.834Z,0
2018-08-20T01:37:35.417Z,0
2018-08-20T01:38:15.974Z,0
2018-08-20T01:38:56.532Z,0
2018-08-20T01:39:37.100Z,0
2018-08-20T01:40:17.663Z,0
2018-08-20T01:40:58.222Z,0
2018-08-20T01:41:38.776Z,0
2018-08-20T01:42:19.372Z,0
2018-08-20T01:42:59.960Z,0
2018-08-20T01:43:40.518Z,0
2018-08-20T01:44:21.081Z,0
2018-08-20T01:45:01.645Z,0
2018-08-20T01:45:42.226Z,0
2018-08-20T01:46:22.817Z,0
2018-08-20T01:47:03.374Z,0
2018-08-20T01:47:43.938Z,0
2018-08-20T01:48:24.499Z,0
2018-08-20T01:49:05.060Z,0
2018-08-20T01:49:45.623Z,0
2018-08-20T01:50:26.201Z,0
2018-08-20T01:51:06.778Z,0
2018-08-20T01:51:47.342Z,0
2018-08-20T01:52:27.905Z,0
2018-08-20T01:53:08.489Z,0
2018-08-20T01:53:49.056Z,0
2018-08-20T01:54:29.612Z,0
2018-08-20T01:55:10.188Z,0
2018-08-20T01:55:50.746Z,0
2018-08-20T01:56:31.317Z,0
2018-08-20T01:57:11.890Z,0
2018-08-20T01:57:52.519Z,0
2018-08-20T01:58:33.011Z,0
2018-08-20T01:59:13.577Z,0
2018-08-20T01:59:54.137Z,0
2018-08-20T02:00:34.712Z,0
2018-08-20T02:01:15.299Z,0
2018-08-20T02:01:55.869Z,0
2018-08-20T02:02:36.436Z,0
2018-08-20T02:03:16.996Z,0
2018-08-20T02:03:57.556Z,0
2018-08-20T02:04:38.128Z,0
2018-08-20T02:05:18.691Z,0
2018-08-20T02:05:59.277Z,0
2018-08-20T02:06:39.847Z,0
2018-08-20T02:07:20.419Z,0
2018-08-20T02:08:00.994Z,0
2018-08-20T02:08:41.563Z,0
2018-08-20T02:09:22.128Z,0
2018-08-20T02:10:02.701Z,0
2018-08-20T02:10:43.269Z,0
2018-08-20T02:11:23.827Z,0
2018-08-20T02:12:04.386Z,0
2018-08-20T02:12:44.944Z,0
2018-08-20T02:13:25.510Z,0
2018-08-20T02:14:06.082Z,0
2018-08-20T02:14:46.645Z,0
2018-08-20T02:15:27.199Z,0
2018-08-20T02:16:07.770Z,0
2018-08-20T02:16:48.328Z,0
2018-08-20T02:17:28.904Z,0
2018-08-20T02:18:09.505Z,0
2018-08-20T02:18:50.059Z,0
2018-08-20T02:19:30.624Z,0
2018-08-20T02:20:11.187Z,0
2018-08-20T02:20:51.752Z,0
2018-08-20T02:21:32.314Z,0
2018-08-20T02:22:12.878Z,0
2018-08-20T02:22:53.453Z,0
2018-08-20T02:23:34.056Z,0
2018-08-20T02:24:14.597Z,0
2018-08-20T02:24:55.155Z,0
2018-08-20T02:25:35.723Z,0
2018-08-20T02:26:16.282Z,0
2018-08-20T02:26:56.840Z,0
2018-08-20T02:27:37.402Z,0
2018-08-20T02:28:18.010Z,0
2018-08-20T02:28:58.531Z,0
2018-08-20T02:29:39.093Z,0
2018-08-20T02:30:19.665Z,0
2018-08-20T02:31:00.216Z,0
2018-08-20T02:31:40.768Z,0
2018-08-20T02:32:21.321Z,0
2018-08-20T02:33:01.901Z,0
2018-08-20T02:33:42.463Z,0
2018-08-20T02:34:23.019Z,0
2018-08-20T02:35:03.589Z,0
2018-08-20T02:35:44.150Z,0
2018-08-20T02:36:24.721Z,0
2018-08-20T02:37:05.307Z,0
2018-08-20T02:37:45.880Z,0
2018-08-20T02:38:26.462Z,0
2018-08-20T02:39:07.028Z,0
2018-08-20T02:39:47.587Z,0
2018-08-20T02:40:28.159Z,0
2018-08-20T02:41:08.715Z,0
2018-08-20T02:41:49.288Z,0
2018-08-20T02:42:29.864Z,0
2018-08-20T02:43:10.437Z,0
2018-08-20T02:43:51.004Z,0
2018-08-20T02:44:31.561Z,0
2018-08-20T02:45:12.119Z,0
2018-08-20T02:45:52.683Z,0
2018-08-20T02:46:33.247Z,0
2018-08-20T02:47:13.807Z,0
2018-08-20T02:47:54.372Z,0
2018-08-20T02:48:34.928Z,0
2018-08-20T02:49:15.567Z,0
2018-08-20T02:49:56.149Z,0
2018-08-20T02:50:36.717Z,0
2018-08-20T02:51:17.282Z,0
2018-08-20T02:51:57.848Z,0
2018-08-20T02:52:38.415Z,0
2018-08-20T02:53:19.004Z,0
2018-08-20T02:53:59.555Z,0
2018-08-20T02:54:40.113Z,0
2018-08-20T02:55:20.705Z,0
2018-08-20T02:56:01.290Z,0
2018-08-20T02:56:41.849Z,0
2018-08-20T02:57:22.403Z,0
2018-08-20T02:58:02.967Z,0
2018-08-20T02:58:43.532Z,0
2018-08-20T02:59:24.126Z,0
2018-08-20T03:00:04.690Z,0
2018-08-20T03:00:45.271Z,0
2018-08-20T03:01:25.840Z,0
2018-08-20T03:02:06.417Z,0
2018-08-20T03:02:47.019Z,0
2018-08-20T03:03:27.577Z,0
2018-08-20T03:04:08.164Z,0
2018-08-20T03:04:48.735Z,0
2018-08-20T03:05:29.306Z,0
2018-08-20T03:06:09.859Z,0
2018-08-20T03:06:50.429Z,0
2018-08-20T03:07:30.988Z,0
2018-08-20T03:08:11.555Z,0
2018-08-20T03:08:52.131Z,0
2018-08-20T03:09:32.744Z,0
2018-08-20T03:10:13.313Z,0
2018-08-20T03:10:53.887Z,0
2018-08-20T03:11:34.453Z,0
2018-08-20T03:12:15.021Z,0
2018-08-20T03:12:55.584Z,0
2018-08-20T03:13:36.166Z,0
2018-08-20T03:14:16.730Z,0
2018-08-20T03:14:57.301Z,0
2018-08-20T03:15:37.874Z,0
2018-08-20T03:16:18.497Z,0
2018-08-20T03:16:59.011Z,0
2018-08-20T03:17:39.581Z,0
2018-08-20T03:18:20.154Z,0
2018-08-20T03:19:00.710Z,0
2018-08-20T03:19:41.274Z,0
2018-08-20T03:20:21.841Z,0
2018-08-20T03:21:02.419Z,0
2018-08-20T03:21:42.986Z,0
2018-08-20T03:22:23.548Z,0
2018-08-20T03:23:04.117Z,0
2018-08-20T03:23:44.675Z,0
2018-08-20T03:24:25.236Z,0
2018-08-20T03:25:05.799Z,0
2018-08-20T03:25:46.351Z,0
2018-08-20T03:26:26.945Z,0
2018-08-20T03:27:07.513Z,0
2018-08-20T03:27:48.104Z,0
2018-08-20T03:28:28.664Z,0
2018-08-20T03:29:09.236Z,0
2018-08-20T03:29:49.801Z,0
2018-08-20T03:30:30.362Z,0
2018-08-20T03:31:10.919Z,0
2018-08-20T03:31:51.501Z,0
2018-08-20T03:32:32.043Z,0
2018-08-20T03:33:12.604Z,0
2018-08-20T03:33:53.173Z,0
2018-08-20T03:34:33.749Z,0
2018-08-20T03:35:14.312Z,0
2018-08-20T03:35:54.876Z,0
2018-08-20T03:36:35.439Z,0
2018-08-20T03:37:15.998Z,0
2018-08-20T03:37:56.563Z,0
2018-08-20T03:38:37.140Z,0
2018-08-20T03:39:17.701Z,0
2018-08-20T03:39:58.265Z,0
2018-08-20T03:40:38.821Z,0
2018-08-20T03:41:19.383Z,0
2018-08-20T03:41:59.955Z,0
2018-08-20T03:42:40.541Z,0
2018-08-20T03:43:21.140Z,0
2018-08-20T03:44:01.711Z,0
2018-08-20T03:44:42.268Z,0
2018-08-20T03:45:22.857Z,0
2018-08-20T03:46:03.416Z,0
2018-08-20T03:46:44.026Z,0
2018-08-20T03:47:24.622Z,0
2018-08-20T03:48:05.186Z,0
2018-08-20T03:48:45.754Z,0
2018-08-20T03:49:26.377Z,0
2018-08-20T03:50:06.963Z,0
2018-08-20T03:50:47.529Z,0
2018-08-20T03:51:28.102Z,0
2018-08-20T03:52:08.716Z,0
2018-08-20T03:52:49.293Z,0
2018-08-20T03:53:29.865Z,0
2018-08-20T03:54:10.444Z,0
2018-08-20T03:54:51.011Z,0
2018-08-20T03:55:31.583Z,0
2018-08-20T03:56:12.138Z,0
2018-08-20T03:56:52.721Z,0
2018-08-20T03:57:33.293Z,0
2018-08-20T03:58:13.857Z,0
2018-08-20T03:58:54.430Z,0
2018-08-20T03:59:34.988Z,0
2018-08-20T04:00:15.571Z,0
2018-08-20T04:00:56.140Z,0
2018-08-20T04:01:36.709Z,5
2018-08-20T04:02:17.270Z,5
2018-08-20T04:02:57.839Z,5
2018-08-20T04:03:38.436Z,5
2018-08-20T04:04:19.061Z,5
2018-08-20T04:04:59.637Z,5
2018-08-20T04:05:40.190Z,5
2018-08-20T04:06:20.770Z,5
2018-08-20T04:07:01.336Z,5
2018-08-20T04:07:41.891Z,5
2018-08-20T04:08:22.474Z,5
2018-08-20T04:09:03.050Z,5
2018-08-20T04:09:43.624Z,5
2018-08-20T04:10:24.270Z,5
2018-08-20T04:11:04.836Z,5
2018-08-20T04:11:45.420Z,10
2018-08-20T04:12:26.020Z,10
2018-08-20T04:13:06.600Z,10
2018-08-20T04:13:47.206Z,10
2018-08-20T04:14:27.773Z,10
2018-08-20T04:15:08.329Z,10
2018-08-20T04:15:48.897Z,10
2018-08-20T04:16:29.491Z,10
2018-08-20T04:17:10.062Z,10
2018-08-20T04:17:50.616Z,10
2018-08-20T04:18:31.168Z,10
2018-08-20T04:19:11.738Z,10
2018-08-20T04:19:52.300Z,15
2018-08-20T04:20:32.933Z,15
2018-08-20T04:21:13.611Z,15
2018-08-20T04:21:54.160Z,15
2018-08-20T04:22:34.786Z,15
2018-08-20T04:23:15.382Z,15
2018-08-20T04:23:55.948Z,15
2018-08-20T04:24:36.580Z,15
2018-08-20T04:25:17.147Z,15
2018-08-20T04:25:57.771Z,15
2018-08-20T04:26:38.339Z,20
2018-08-20T04:27:18.894Z,20
2018-08-20T04:27:59.455Z,20
2018-08-20T04:28:40.022Z,20
2018-08-20T04:29:20.584Z,20
2018-08-20T04:30:01.197Z,20
2018-08-20T04:30:41.756Z,20
2018-08-20T04:31:22.306Z,20
2018-08-20T04:32:02.888Z,25
2018-08-20T04:32:43.483Z,25
2018-08-20T04:33:24.054Z,25
2018-08-20T04:34:04.610Z,25
2018-08-20T04:34:45.178Z,25
2018-08-20T04:35:25.751Z,25
2018-08-20T04:36:06.333Z,25
2018-08-20T04:36:46.910Z,25
2018-08-20T04:37:27.476Z,30
2018-08-20T04:38:08.035Z,30
2018-08-20T04:38:48.611Z,30
2018-08-20T04:39:29.178Z,30
2018-08-20T04:40:09.750Z,30
2018-08-20T04:40:50.319Z,30
2018-08-20T04:41:30.912Z,30
2018-08-20T04:42:11.557Z,30
2018-08-20T04:42:52.060Z,35
2018-08-20T04:43:32.662Z,35
2018-08-20T04:44:13.241Z,35
2018-08-20T04:44:53.793Z,35
2018-08-20T04:45:34.351Z,35
2018-08-20T04:46:14.947Z,35
2018-08-20T04:46:55.504Z,40
2018-08-20T04:47:36.078Z,40
2018-08-20T04:48:16.645Z,40
2018-08-20T04:48:57.299Z,40
2018-08-20T04:49:37.866Z,40
2018-08-20T04:50:18.898Z,40
2018-08-20T04:50:59.381Z,45
2018-08-20T04:51:39.691Z,45
2018-08-20T04:52:20.279Z,45
2018-08-20T04:53:00.856Z,45
2018-08-20T04:53:41.407Z,45
2018-08-20T04:54:21.977Z,50
2018-08-20T04:55:02.530Z,50
2018-08-20T04:55:43.106Z,50
2018-08-20T04:56:23.671Z,50
2018-08-20T04:57:04.237Z,50
2018-08-20T04:57:44.802Z,55
2018-08-20T04:58:25.356Z,55
2018-08-20T04:59:05.916Z,55
2018-08-20T04:59:46.505Z,55
2018-08-20T05:00:27.070Z,60
2018-08-20T05:01:07.630Z,60
2018-08-20T05:01:48.199Z,60
2018-08-20T05:02:28.764Z,60
2018-08-20T05:03:09.356Z,60
2018-08-20T05:03:49.968Z,65
2018-08-20T05:04:30.500Z,65
2018-08-20T05:05:11.089Z,65
2018-08-20T05:05:51.650Z,65
2018-08-20T05:06:32.217Z,65
2018-08-20T05:07:12.785Z,65
2018-08-20T05:07:53.338Z,65
2018-08-20T05:08:33.906Z,70
2018-08-20T05:09:14.484Z,70
2018-08-20T05:09:55.075Z,70
2018-08-20T05:10:35.689Z,70
2018-08-20T05:11:16.236Z,70
2018-08-20T05:11:56.803Z,70
2018-08-20T05:12:37.370Z,70
2018-08-20T05:13:17.942Z,70
2018-08-20T05:13:58.509Z,75
2018-08-20T05:14:39.102Z,75
2018-08-20T05:15:19.704Z,75
2018-08-20T05:16:00.251Z,75
2018-08-20T05:16:40.817Z,75
2018-08-20T05:17:21.371Z,80
2018-08-20T05:18:01.935Z,80
2018-08-20T05:18:42.585Z,80
2018-08-20T05:19:23.083Z,80
2018-08-20T05:20:03.662Z,85
2018-08-20T05:20:44.227Z,85
2018-08-20T05:21:24.792Z,85
2018-08-20T05:22:05.385Z,90
2018-08-20T05:22:45.958Z,90
2018-08-20T05:23:26.552Z,90
2018-08-20T05:24:07.115Z,95
2018-08-20T05:24:47.684Z,95
2018-08-20T05:25:28.278Z,95
2018-08-20T05:26:08.863Z,100
2018-08-20T05:26:49.453Z,100
2018-08-20T05:27:30.030Z,100
2018-08-20T05:28:10.581Z,105
2018-08-20T05:28:51.149Z,105
2018-08-20T05:29:31.825Z,105
2018-08-20T05:30:12.362Z,110
2018-08-20T05:30:52.926Z,110
2018-08-20T05:31:33.498Z,115
2018-08-20T05:32:14.059Z,120
2018-08-20T05:32:54.672Z,125
2018-08-20T05:33:35.289Z,125
2018-08-20T05:34:15.871Z,125
2018-08-20T05:34:56.424Z,130
2018-08-20T05:35:36.986Z,125
2018-08-20T05:36:17.554Z,125
2018-08-20T05:36:58.109Z,130
2018-08-20T05:37:38.696Z,135
2018-08-20T05:38:19.286Z,145
2018-08-20T05:38:59.847Z,150
2018-08-20T05:39:40.403Z,150
2018-08-20T05:40:20.962Z,150
2018-08-20T05:41:01.532Z,145
2018-08-20T05:41:42.095Z,150
2018-08-20T05:42:22.661Z,150
2018-08-20T05:43:03.215Z,150
2018-08-20T05:43:43.773Z,165
2018-08-20T05:44:24.362Z,160
2018-08-20T05:45:04.928Z,165
2018-08-20T05:45:45.492Z,160
2018-08-20T05:46:26.061Z,155
2018-08-20T05:47:06.623Z,165
2018-08-20T05:47:47.228Z,175
2018-08-20T05:48:27.789Z,175
2018-08-20T05:49:08.380Z,165
2018-08-20T05:49:48.966Z,175
2018-08-20T05:50:29.532Z,165
2018-08-20T05:51:10.106Z,175
2018-08-20T05:51:50.685Z,190
2018-08-20T05:52:31.285Z,195
2018-08-20T05:53:11.856Z,190
2018-08-20T05:53:52.425Z,185
2018-08-20T05:54:32.994Z,200
2018-08-20T05:55:13.557Z,180
2018-08-20T05:55:55.493Z,190
2018-08-20T05:56:36.197Z,215
2018-08-20T05:57:16.767Z,205
2018-08-20T05:57:57.564Z,200
2018-08-20T05:58:38.135Z,210
2018-08-20T05:59:18.802Z,210
2018-08-20T05:59:59.314Z,215
2018-08-20T06:00:39.852Z,215
2018-08-20T06:01:20.451Z,230
2018-08-20T06:02:02.026Z,225
2018-08-20T06:02:42.974Z,240
2018-08-20T06:03:23.599Z,240
2018-08-20T06:04:04.216Z,230
2018-08-20T06:04:45.348Z,245
2018-08-20T06:05:26.713Z,245
2018-08-20T06:06:07.289Z,250
2018-08-20T06:06:47.891Z,290
2018-08-20T06:07:28.464Z,245
2018-08-20T06:08:09.046Z,305
2018-08-20T06:08:49.648Z,195
2018-08-20T06:09:30.235Z,170
2018-08-20T06:10:10.853Z,190
2018-08-20T06:10:51.454Z,220
2018-08-20T06:11:32.333Z,190
2018-08-20T06:12:12.989Z,170
2018-08-20T06:12:53.565Z,210
2018-08-20T06:13:34.251Z,270
2018-08-20T06:14:14.819Z,360
2018-08-20T06:14:55.384Z,700
2018-08-20T06:15:35.939Z,530
2018-08-20T06:16:16.590Z,205
2018-08-20T06:16:57.178Z,260
2018-08-20T06:17:37.840Z,1190
2018-08-20T06:18:19.144Z,985
2018-08-20T06:19:00.208Z,190
2018-08-20T06:19:40.930Z,190
2018-08-20T06:20:21.569Z,280
2018-08-20T06:21:02.224Z,790
2018-08-20T06:21:42.787Z,115
2018-08-20T06:22:23.382Z,125
2018-08-20T06:23:03.942Z,135
2018-08-20T06:23:44.561Z,175
2018-08-20T06:24:25.088Z,170
2018-08-20T06:25:06.310Z,180
2018-08-20T06:25:46.995Z,195
2018-08-20T06:26:27.562Z,220
2018-08-20T06:27:08.283Z,265
2018-08-20T06:27:48.848Z,955
2018-08-20T06:28:29.607Z,335
2018-08-20T06:29:10.147Z,450
2018-08-20T06:29:50.787Z,1125
2018-08-20T06:30:31.538Z,325
2018-08-20T06:31:12.113Z,590
2018-08-20T06:31:52.664Z,360
2018-08-20T06:32:33.456Z,545
2018-08-20T06:33:14.033Z,225
2018-08-20T06:33:54.604Z,185
2018-08-20T06:34:35.189Z,235
2018-08-20T06:35:15.771Z,265
2018-08-20T06:35:56.367Z,345
2018-08-20T06:36:36.982Z,725
2018-08-20T06:37:17.530Z,580
2018-08-20T06:37:58.103Z,570
2018-08-20T06:38:38.658Z,660
2018-08-20T06:39:19.230Z,355
2018-08-20T06:39:59.814Z,385
2018-08-20T06:40:40.361Z,265
2018-08-20T06:41:20.940Z,190
2018-08-20T06:42:01.508Z,165
2018-08-20T06:42:42.082Z,155
2018-08-20T06:43:23.537Z,160
2018-08-20T06:44:04.117Z,175
2018-08-20T06:44:44.662Z,220
2018-08-20T06:45:25.225Z,195
2018-08-20T06:46:05.801Z,290
2018-08-20T06:46:46.378Z,210
2018-08-20T06:47:26.987Z,200
2018-08-20T06:48:07.626Z,285
2018-08-20T06:48:48.270Z,970
2018-08-20T06:49:28.791Z,880
2018-08-20T06:50:09.365Z,420
2018-08-20T06:50:49.933Z,640
2018-08-20T06:51:30.488Z,400
2018-08-20T06:52:11.071Z,630
2018-08-20T06:52:51.665Z,1105
2018-08-20T06:53:32.227Z,265
2018-08-20T06:54:12.938Z,240
2018-08-20T06:54:53.522Z,250
2018-08-20T06:55:34.104Z,350
2018-08-20T06:56:14.675Z,355
2018-08-20T06:56:55.237Z,945
2018-08-20T06:57:35.859Z,915
2018-08-20T06:58:16.431Z,1330
2018-08-20T06:58:57.006Z,1375
2018-08-20T06:59:37.583Z,1370
2018-08-20T07:00:18.148Z,1410
2018-08-20T07:00:58.730Z,1360
2018-08-20T07:01:39.288Z,810
2018-08-20T07:02:19.865Z,1400
2018-08-20T07:03:00.428Z,1370
2018-08-20T07:03:40.991Z,1305
2018-08-20T07:04:21.591Z,520
2018-08-20T07:05:02.177Z,1275
2018-08-20T07:05:42.898Z,1335
2018-08-20T07:06:23.477Z,1460
2018-08-20T07:07:04.043Z,1390
2018-08-20T07:07:44.630Z,1355
2018-08-20T07:08:25.214Z,895
2018-08-20T07:09:05.772Z,1155
2018-08-20T07:09:46.351Z,510
2018-08-20T07:10:26.910Z,330
2018-08-20T07:11:07.494Z,255
2018-08-20T07:11:48.121Z,205
2018-08-20T07:12:28.692Z,175
2018-08-20T07:13:09.361Z,155
2018-08-20T07:13:49.942Z,140
2018-08-20T07:14:30.517Z,125
2018-08-20T07:15:11.081Z,125
2018-08-20T07:15:51.859Z,115
2018-08-20T07:16:32.438Z,105
2018-08-20T07:17:13.011Z,90
2018-08-20T07:17:53.609Z,80
2018-08-20T07:18:34.191Z,70
2018-08-20T07:19:14.764Z,65
2018-08-20T07:19:55.312Z,60
2018-08-20T07:20:35.935Z,55
2018-08-20T07:21:16.497Z,50
2018-08-20T07:21:57.074Z,50
2018-08-20T07:22:37.695Z,50
2018-08-20T07:23:18.277Z,45
2018-08-20T07:23:58.857Z,45
2018-08-20T07:24:39.365Z,45
2018-08-20T07:25:19.939Z,50
2018-08-20T07:26:00.494Z,55
2018-08-20T07:26:41.054Z,60
2018-08-20T07:27:21.663Z,70
2018-08-20T07:28:02.254Z,80
2018-08-20T07:28:42.816Z,90
2018-08-20T07:29:23.401Z,100
2018-08-20T07:30:04.285Z,105
2018-08-20T07:30:44.892Z,110
2018-08-20T07:31:25.584Z,115
2018-08-20T07:32:06.169Z,115
2018-08-20T07:32:46.756Z,110
2018-08-20T07:33:27.590Z,110
2018-08-20T07:34:08.169Z,125
2018-08-20T07:34:48.809Z,130
2018-08-20T07:35:29.832Z,135
2018-08-20T07:36:10.497Z,130
2018-08-20T07:36:51.068Z,130
2018-08-20T07:37:31.657Z,130
2018-08-20T07:38:12.366Z,140
2018-08-20T07:38:52.995Z,140
2018-08-20T07:39:33.573Z,140
2018-08-20T07:40:14.164Z,150
2018-08-20T07:40:54.748Z,160
2018-08-20T07:41:35.306Z,150
2018-08-20T07:42:15.901Z,145
2018-08-20T07:42:56.473Z,145
2018-08-20T07:43:37.082Z,150
2018-08-20T07:44:17.662Z,145
2018-08-20T07:44:58.226Z,135
2018-08-20T07:45:38.796Z,130
2018-08-20T07:46:19.367Z,125
2018-08-20T07:46:59.975Z,120
2018-08-20T07:47:40.593Z,115
2018-08-20T07:48:21.182Z,115
2018-08-20T07:49:01.803Z,120
2018-08-20T07:49:42.370Z,120
2018-08-20T07:50:22.936Z,125
2018-08-20T07:51:03.493Z,130
2018-08-20T07:51:44.155Z,130
2018-08-20T07:52:24.757Z,135
2018-08-20T07:53:05.308Z,140
2018-08-20T07:53:45.948Z,135
2018-08-20T07:54:26.510Z,135
2018-08-20T07:55:07.062Z,135
2018-08-20T07:55:47.649Z,140
2018-08-20T07:56:28.224Z,140
2018-08-20T07:57:08.813Z,150
2018-08-20T07:57:49.363Z,140
2018-08-20T07:58:29.921Z,135
2018-08-20T07:59:10.489Z,135
2018-08-20T07:59:51.128Z,130
2018-08-20T08:00:31.661Z,125
2018-08-20T08:01:12.221Z,125
2018-08-20T08:01:52.831Z,125
2018-08-20T08:02:33.412Z,115
2018-08-20T08:03:13.957Z,110
2018-08-20T08:03:54.525Z,110
2018-08-20T08:04:35.191Z,110
2018-08-20T08:05:15.776Z,110
2018-08-20T08:05:56.358Z,110
2018-08-20T08:06:36.912Z,110
2018-08-20T08:07:17.484Z,120
2018-08-20T08:07:58.097Z,115
2018-08-20T08:08:38.684Z,105
2018-08-20T08:09:19.223Z,100
2018-08-20T08:09:59.790Z,100
2018-08-20T08:10:40.399Z,95
2018-08-20T08:11:20.970Z,95
2018-08-20T08:12:01.553Z,95
2018-08-20T08:12:42.124Z,95
2018-08-20T08:13:22.691Z,90
2018-08-20T08:14:03.274Z,90
2018-08-20T08:14:43.817Z,90
2018-08-20T08:15:24.374Z,90
2018-08-20T08:16:04.932Z,90
2018-08-20T08:16:45.554Z,85
2018-08-20T08:17:26.168Z,85
2018-08-20T08:18:06.778Z,85
2018-08-20T08:18:47.330Z,85
2018-08-20T08:19:27.897Z,80
2018-08-20T08:20:08.474Z,80
2018-08-20T08:20:49.051Z,80
2018-08-20T08:21:29.616Z,80
2018-08-20T08:22:10.696Z,80
2018-08-20T08:22:51.363Z,80
2018-08-20T08:23:32.012Z,80
2018-08-20T08:24:12.578Z,80
2018-08-20T08:24:53.151Z,80
2018-08-20T08:25:33.752Z,80
2018-08-20T08:26:14.327Z,85
2018-08-20T08:26:54.880Z,85
2018-08-20T08:27:35.472Z,85
2018-08-20T08:28:16.082Z,90
2018-08-20T08:28:56.647Z,90
2018-08-20T08:29:37.216Z,90
2018-08-20T08:30:17.781Z,90
2018-08-20T08:30:58.355Z,95
2018-08-20T08:31:38.922Z,90
2018-08-20T08:32:19.559Z,90
2018-08-20T08:33:00.104Z,90
2018-08-20T08:33:40.692Z,90
2018-08-20T08:34:21.259Z,85
2018-08-20T08:35:01.817Z,85
2018-08-20T08:35:42.371Z,90
2018-08-20T08:36:22.978Z,90
2018-08-20T08:37:03.570Z,85
2018-08-20T08:37:44.146Z,85
2018-08-20T08:38:24.714Z,85
2018-08-20T08:39:05.280Z,85
2018-08-20T08:39:45.839Z,85
2018-08-20T08:40:26.401Z,85
2018-08-20T08:41:07.013Z,85
2018-08-20T08:41:47.574Z,80
2018-08-20T08:42:28.140Z,80
2018-08-20T08:43:08.701Z,80
2018-08-20T08:43:49.288Z,80
2018-08-20T08:44:29.835Z,80
2018-08-20T08:45:10.413Z,75
2018-08-20T08:45:50.983Z,75
2018-08-20T08:46:31.629Z,70
2018-08-20T08:47:12.193Z,75
2018-08-20T08:47:52.757Z,75
2018-08-20T08:48:33.325Z,75
2018-08-20T08:49:13.952Z,75
2018-08-20T08:49:54.562Z,70
2018-08-20T08:50:35.067Z,70
2018-08-20T08:51:15.631Z,70
2018-08-20T08:51:56.291Z,70
2018-08-20T08:52:36.873Z,70
2018-08-20T08:53:17.451Z,75
2018-08-20T08:53:58.030Z,75
2018-08-20T08:54:38.573Z,80
2018-08-20T08:55:19.135Z,80
2018-08-20T08:55:59.702Z,85
2018-08-20T08:56:40.289Z,85
2018-08-20T08:57:20.835Z,90
2018-08-20T08:58:01.425Z,90
2018-08-20T08:58:41.972Z,90
2018-08-20T08:59:22.545Z,90
2018-08-20T09:00:03.132Z,90
2018-08-20T09:00:43.857Z,90
2018-08-20T09:01:24.322Z,90
2018-08-20T09:02:04.890Z,90
2018-08-20T09:02:45.489Z,90
2018-08-20T09:03:26.068Z,95
2018-08-20T09:04:06.646Z,95
2018-08-20T09:04:47.230Z,90
2018-08-20T09:05:27.971Z,90
2018-08-20T09:06:08.543Z,95
2018-08-20T09:06:49.119Z,95
2018-08-20T09:07:29.668Z,100
2018-08-20T09:08:10.221Z,100
2018-08-20T09:08:50.789Z,110
2018-08-20T09:09:31.376Z,115
2018-08-20T09:10:11.941Z,115
2018-08-20T09:10:52.511Z,120
2018-08-20T09:11:33.149Z,125
2018-08-20T09:12:13.758Z,125
2018-08-20T09:12:54.318Z,125
2018-08-20T09:13:34.925Z,125
2018-08-20T09:14:15.441Z,125
2018-08-20T09:14:56.035Z,125
2018-08-20T09:15:36.591Z,125
2018-08-20T09:16:17.208Z,130
2018-08-20T09:16:57.764Z,135
2018-08-20T09:17:38.350Z,135
2018-08-20T09:18:18.938Z,135
2018-08-20T09:18:59.500Z,135
2018-08-20T09:19:40.107Z,135
2018-08-20T09:20:20.672Z,135
2018-08-20T09:21:01.240Z,135
2018-08-20T09:21:41.820Z,135
2018-08-20T09:22:22.384Z,135
2018-08-20T09:23:02.974Z,135
2018-08-20T09:23:43.555Z,135
2018-08-20T09:24:24.124Z,135
2018-08-20T09:25:04.699Z,140
2018-08-20T09:25:45.271Z,140
2018-08-20T09:26:25.837Z,145
2018-08-20T09:27:06.809Z,150
2018-08-20T09:27:47.481Z,155
2018-08-20T09:28:28.000Z,155
2018-08-20T09:29:08.609Z,155
2018-08-20T09:29:49.182Z,150
2018-08-20T09:30:29.747Z,150
2018-08-20T09:31:10.302Z,145
2018-08-20T09:31:50.871Z,140
2018-08-20T09:32:31.448Z,135
2018-08-20T09:33:12.100Z,135
2018-08-20T09:33:52.679Z,135
2018-08-20T09:34:33.243Z,130
2018-08-20T09:35:13.913Z,130
2018-08-20T09:35:54.487Z,130
2018-08-20T09:36:35.084Z,130
2018-08-20T09:37:15.731Z,130
2018-08-20T09:37:56.834Z,130
2018-08-20T09:38:37.736Z,130
2018-08-20T09:39:18.315Z,130
2018-08-20T09:39:58.980Z,130
2018-08-20T09:40:39.785Z,130